Time;durP1;ratioP1;P1;durP2;ratioP2;P2;SDS_P1;SDS_P2;PMS_P1;PMS_P2;Temp;Humidity;BMP_temperature;BMP_pressure;BME280_temperature;BME280_humidity;BME280_pressure;Samples;Min_cycle;Max_cycle;Signal;HPM_P1;HPM_P2
2023/09/14 00:01:25;;;;;;;5.47;3.57;;;12.80;93.50;;;;;;5119462;28;20459;-61
2023/09/14 00:03:53;;;;;;;6.87;4.50;;;12.80;96.60;;;;;;5119358;28;20542;-60
2023/09/14 00:06:20;;;;;;;5.90;4.00;;;12.70;1.00;;;;;;5118883;28;20502;-61
2023/09/14 00:08:48;;;;;;;8.77;3.57;;;12.70;1.00;;;;;;5118966;28;20456;-60
2023/09/14 00:11:15;;;;;;;5.13;3.97;;;12.70;1.00;;;;;;5118417;28;20469;-61
2023/09/14 00:13:42;;;;;;;7.10;4.60;;;12.60;99.90;;;;;;5119158;28;20455;-61
2023/09/14 00:16:09;;;;;;;6.87;4.13;;;12.70;1.00;;;;;;5118859;28;20502;-61
2023/09/14 00:18:37;;;;;;;5.27;4.27;;;12.60;99.90;;;;;;5118662;28;20459;-61
2023/09/14 00:21:05;;;;;;;8.27;4.20;;;12.50;99.90;;;;;;5119016;28;20505;-61
2023/09/14 00:23:33;;;;;;;7.00;4.70;;;12.50;99.90;;;;;;5119172;28;20459;-61
2023/09/14 00:26:00;;;;;;;4.47;3.53;;;12.50;99.90;;;;;;5118899;28;20451;-61
2023/09/14 00:28:27;;;;;;;7.60;5.00;;;12.50;1.00;;;;;;5118498;28;20459;-61
2023/09/14 00:30:54;;;;;;;7.83;4.53;;;12.50;99.90;;;;;;5118722;28;20459;-61
2023/09/14 00:33:23;;;;;;;8.07;4.83;;;12.50;99.90;;;;;;5118921;28;20947;-61
2023/09/14 00:35:50;;;;;;;6.00;4.13;;;12.50;99.90;;;;;;5118851;28;20473;-61
2023/09/14 00:38:19;;;;;;;9.63;4.30;;;12.50;1.00;;;;;;5118435;28;20550;-61
2023/09/14 00:40:48;;;;;;;4.97;4.07;;;12.50;23.80;;;;;;5118692;28;20462;-61
2023/09/14 00:43:15;;;;;;;7.70;4.00;;;12.40;1.00;;;;;;5118496;28;20733;-61
2023/09/14 00:45:42;;;;;;;6.83;4.97;;;12.40;99.90;;;;;;5117958;28;20453;-61
2023/09/14 00:48:10;;;;;;;9.03;4.63;;;12.40;99.90;;;;;;5118114;28;20472;-61
2023/09/14 00:50:38;;;;;;;5.40;4.33;;;12.30;99.90;;;;;;5118515;28;20451;-61
2023/09/14 00:53:07;;;;;;;6.00;4.70;;;12.30;99.90;;;;;;5118579;28;20747;-61
2023/09/14 00:55:36;;;;;;;8.43;5.03;;;12.20;1.00;;;;;;5118538;28;20491;-61
2023/09/14 00:58:04;;;;;;;7.13;5.50;;;12.20;1.00;;;;;;5118063;28;20450;-61
2023/09/14 01:00:31;;;;;;;6.60;4.97;;;12.20;1.00;;;;;;5118370;28;20500;-61
2023/09/14 01:03:00;;;;;;;6.60;5.13;;;12.20;99.90;;;;;;5117890;28;20482;-61
2023/09/14 01:05:30;;;;;;;7.53;4.97;;;12.10;99.90;;;;;;5118292;28;20956;-61
2023/09/14 01:07:57;;;;;;;6.87;4.80;;;12.10;1.00;;;;;;5118497;28;20437;-62
2023/09/14 01:10:26;;;;;;;7.23;5.20;;;12.10;99.90;;;;;;5117666;28;20455;-61
2023/09/14 01:12:54;;;;;;;9.90;5.27;;;12.10;99.90;;;;;;5117996;28;20804;-61
2023/09/14 01:15:25;;;;;;;6.40;4.77;;;12.00;1.00;;;;;;5118397;28;20491;-61
2023/09/14 01:18:05;;;;;;;6.13;4.57;;;12.10;1.00;;;;;;5118397;28;20843;-60
2023/09/14 01:20:51;;;;;;;7.63;5.07;;;12.10;31.20;;;;;;5117953;28;20451;-61
2023/09/14 01:23:31;;;;;;;7.83;4.40;;;12.10;1.00;;;;;;5117003;28;20480;-61
2023/09/14 01:26:01;;;;;;;7.10;5.40;;;12.10;1.00;;;;;;5117895;28;20719;-61
2023/09/14 01:28:29;;;;;;;8.50;6.10;;;12.00;1.00;;;;;;5117766;28;20542;-61
2023/09/14 01:30:56;;;;;;;8.60;5.80;;;11.90;1.00;;;;;;5117347;28;20892;-61
2023/09/14 01:33:25;;;;;;;7.20;4.80;;;11.90;99.90;;;;;;5117925;28;20562;-61
2023/09/14 01:36:00;;;;;;;6.67;5.07;;;11.80;1.00;;;;;;5117862;28;20924;-61
2023/09/14 01:38:29;;;;;;;6.97;5.00;;;11.80;1.00;;;;;;5117372;28;20458;-61
2023/09/14 01:40:57;;;;;;;6.03;5.23;;;11.90;9.90;;;;;;5116966;28;20434;-61
2023/09/14 01:43:27;;;;;;;5.77;4.73;;;11.90;1.00;;;;;;5117965;28;20778;-61
2023/09/14 01:45:55;;;;;;;7.43;5.10;;;11.90;1.00;;;;;;5117983;28;20592;-61
2023/09/14 01:48:24;;;;;;;7.10;4.90;;;12.00;99.90;;;;;;5117684;28;20550;-61
2023/09/14 01:50:51;;;;;;;8.10;6.00;;;12.00;99.90;;;;;;5117523;28;20512;-61
2023/09/14 01:53:18;;;;;;;12.50;5.83;;;12.00;1.00;;;;;;5117539;28;20460;-61
2023/09/14 01:55:46;;;;;;;8.10;5.30;;;12.00;21.60;;;;;;5117767;28;20557;-61
2023/09/14 01:58:13;;;;;;;6.63;4.63;;;12.00;99.90;;;;;;5117190;28;20546;-61
2023/09/14 02:00:41;;;;;;;9.20;5.50;;;12.00;99.90;;;;;;5117512;28;20763;-61
2023/09/14 02:03:08;;;;;;;8.77;6.30;;;12.10;1.00;;;;;;5117617;28;20491;-61
2023/09/14 02:05:36;;;;;;;6.87;6.27;;;12.10;59.30;;;;;;5117187;28;20451;-61
2023/09/14 02:08:03;;;;;;;10.03;7.00;;;12.10;37.70;;;;;;5117109;28;20550;-61
2023/09/14 02:10:30;;;;;;;8.17;5.73;;;12.10;99.90;;;;;;5117127;28;20441;-61
2023/09/14 02:12:58;;;;;;;7.10;6.40;;;12.10;98.30;;;;;;5117333;28;20798;-61
2023/09/14 02:15:25;;;;;;;11.20;6.63;;;12.20;99.90;;;;;;5116653;28;20880;-61
2023/09/14 02:17:53;;;;;;;8.33;6.20;;;12.20;99.90;;;;;;5116926;28;20940;-61
2023/09/14 02:20:21;;;;;;;6.93;6.20;;;12.20;99.90;;;;;;5117694;28;20430;-61
2023/09/14 02:22:48;;;;;;;7.77;5.47;;;12.20;1.00;;;;;;5117183;28;20455;-61
2023/09/14 02:25:16;;;;;;;8.30;5.10;;;12.20;99.90;;;;;;5117276;28;20454;-61
2023/09/14 02:27:43;;;;;;;6.03;5.03;;;12.30;99.90;;;;;;5117429;28;20463;-62
2023/09/14 02:30:11;;;;;;;13.03;6.30;;;12.30;99.90;;;;;;5116868;28;20560;-62
2023/09/14 02:32:38;;;;;;;7.17;5.63;;;12.30;1.00;;;;;;5116678;28;20451;-61
2023/09/14 02:35:08;;;;;;;10.33;6.43;;;12.40;1.00;;;;;;5119701;28;20989;-61
2023/09/14 02:37:35;;;;;;;10.40;6.70;;;12.40;1.00;;;;;;5121409;28;20455;-61
2023/09/14 02:40:06;;;;;;;7.93;6.33;;;12.50;1.00;;;;;;5120432;28;21003;-61
2023/09/14 02:42:36;;;;;;;8.80;6.63;;;12.40;1.00;;;;;;5121341;28;20860;-61
2023/09/14 02:45:04;;;;;;;9.77;7.37;;;12.50;1.00;;;;;;5120750;28;20455;-62
2023/09/14 02:47:31;;;;;;;8.63;5.73;;;12.50;1.00;;;;;;5120985;28;20459;-61
2023/09/14 02:49:59;;;;;;;9.27;6.97;;;12.50;1.00;;;;;;5120128;28;20935;-61
2023/09/14 02:52:28;;;;;;;8.50;6.27;;;12.40;99.90;;;;;;5120015;28;20455;-61
2023/09/14 02:54:55;;;;;;;7.93;6.13;;;12.40;99.90;;;;;;5106313;28;21020;-61
2023/09/14 02:57:22;;;;;;;7.80;6.20;;;12.40;99.90;;;;;;5098864;28;20774;-61
2023/09/14 02:59:49;;;;;;;9.97;6.90;;;12.40;99.90;;;;;;5099296;28;20531;-61
2023/09/14 03:02:17;;;;;;;9.20;6.20;;;12.40;1.00;;;;;;5098745;28;20511;-61
2023/09/14 03:04:44;;;;;;;8.03;7.03;;;12.40;1.00;;;;;;5098628;28;20543;-61
2023/09/14 03:07:11;;;;;;;10.43;8.07;;;12.50;1.00;;;;;;5098897;28;20535;-61
2023/09/14 03:09:39;;;;;;;11.43;7.07;;;12.50;1.00;;;;;;5098509;28;20496;-62
2023/09/14 03:12:07;;;;;;;8.20;7.33;;;12.50;1.00;;;;;;5098068;28;20889;-61
2023/09/14 03:14:35;;;;;;;11.20;7.13;;;12.60;1.00;;;;;;5098089;28;20841;-62
2023/09/14 03:17:02;;;;;;;7.93;6.90;;;12.60;1.00;;;;;;5098128;28;20456;-61
2023/09/14 03:19:30;;;;;;;9.93;7.20;;;12.60;1.00;;;;;;5097898;28;20549;-61
2023/09/14 03:21:57;;;;;;;8.97;7.10;;;12.70;1.00;;;;;;5097380;28;20824;-61
2023/09/14 03:24:24;;;;;;;8.07;6.20;;;12.70;1.00;;;;;;5096692;28;20435;-61
2023/09/14 03:26:53;;;;;;;8.83;7.27;;;12.70;1.00;;;;;;5099404;28;20480;-61
2023/09/14 03:29:21;;;;;;;11.27;7.40;;;12.70;1.00;;;;;;5099870;28;20435;-61
2023/09/14 03:31:50;;;;;;;9.10;6.83;;;12.70;99.90;;;;;;5099672;28;20832;-61
2023/09/14 03:34:17;;;;;;;9.60;6.73;;;12.70;99.90;;;;;;5097836;28;20518;-62
2023/09/14 03:36:45;;;;;;;9.60;6.93;;;12.60;99.90;;;;;;5097765;28;20492;-62
2023/09/14 03:39:12;;;;;;;9.60;7.17;;;12.60;99.90;;;;;;5097492;28;20484;-62
2023/09/14 03:41:39;;;;;;;7.37;6.53;;;12.70;99.90;;;;;;5097834;28;20893;-62
2023/09/14 03:44:08;;;;;;;8.20;7.03;;;12.70;1.00;;;;;;5097222;28;20537;-62
2023/09/14 03:46:35;;;;;;;10.27;7.40;;;12.80;1.00;;;;;;5096513;28;20845;-62
2023/09/14 03:49:06;;;;;;;7.87;6.23;;;12.80;1.00;;;;;;5098969;28;20488;-61
2023/09/14 03:51:33;;;;;;;7.17;6.47;;;12.80;99.90;;;;;;5098763;28;20439;-62
2023/09/14 03:54:01;;;;;;;8.30;6.47;;;12.70;99.90;;;;;;5098497;28;20563;-61
2023/09/14 03:56:28;;;;;;;10.33;7.00;;;12.70;99.90;;;;;;5098934;28;20842;-61
2023/09/14 03:58:56;;;;;;;7.77;6.50;;;12.70;99.90;;;;;;5099105;28;20459;-61
2023/09/14 04:01:25;;;;;;;7.93;6.40;;;12.60;99.90;;;;;;5099113;28;20513;-61
2023/09/14 04:03:52;;;;;;;7.47;6.40;;;12.60;1.00;;;;;;5099265;28;20465;-62
2023/09/14 04:06:19;;;;;;;10.33;7.17;;;12.50;1.00;;;;;;5097630;28;20456;-61
2023/09/14 04:08:46;;;;;;;8.20;5.93;;;12.50;99.90;;;;;;5098429;28;20910;-61
2023/09/14 04:11:14;;;;;;;10.43;6.57;;;12.50;99.90;;;;;;5098759;28;20945;-61
2023/09/14 04:13:41;;;;;;;10.60;6.60;;;12.50;99.90;;;;;;5099132;28;20552;-62
2023/09/14 04:16:08;;;;;;;12.50;7.80;;;12.60;99.90;;;;;;5098355;28;20577;-61
2023/09/14 04:18:38;;;;;;;9.33;6.97;;;12.60;99.90;;;;;;5098441;28;20463;-61
2023/09/14 04:21:07;;;;;;;12.70;7.20;;;12.60;99.90;;;;;;5098593;28;20460;-61
2023/09/14 04:23:34;;;;;;;7.20;5.83;;;12.60;99.90;;;;;;5098837;28;20460;-62
2023/09/14 04:26:03;;;;;;;10.03;6.50;;;12.60;99.90;;;;;;5098802;28;20532;-61
2023/09/14 04:28:31;;;;;;;11.30;6.37;;;12.70;99.90;;;;;;5098614;28;20543;-62
2023/09/14 04:31:02;;;;;;;12.27;7.50;;;12.70;99.90;;;;;;5098439;28;20510;-61
2023/09/14 04:33:29;;;;;;;10.13;8.97;;;12.70;99.90;;;;;;5098451;28;20499;-61
2023/09/14 04:35:59;;;;;;;11.97;8.17;;;12.80;99.90;;;;;;5098273;28;20747;-61
2023/09/14 04:38:27;;;;;;;15.20;8.77;;;12.80;99.90;;;;;;5097674;28;20562;-61
2023/09/14 04:40:54;;;;;;;11.30;8.37;;;12.80;99.90;;;;;;5098107;28;20552;-61
2023/09/14 04:43:22;;;;;;;13.70;9.50;;;12.80;99.90;;;;;;5098081;28;20457;-61
2023/09/14 04:45:50;;;;;;;10.37;9.30;;;12.80;99.90;;;;;;5098150;28;20543;-61
2023/09/14 04:48:18;;;;;;;14.37;7.53;;;12.90;99.90;;;;;;5097944;28;20833;-61
2023/09/14 04:50:45;;;;;;;8.97;7.37;;;12.90;99.90;;;;;;5097687;28;20510;-61
2023/09/14 04:53:13;;;;;;;9.60;7.93;;;12.90;99.90;;;;;;5098207;28;20559;-62
2023/09/14 04:55:41;;;;;;;8.13;7.30;;;12.90;99.90;;;;;;5097398;28;20506;-61
2023/09/14 04:58:08;;;;;;;13.03;8.03;;;12.80;99.90;;;;;;5097516;28;20952;-62
2023/09/14 05:00:36;;;;;;;8.90;7.33;;;12.90;99.90;;;;;;5097683;28;20502;-62
2023/09/14 05:03:05;;;;;;;7.87;6.77;;;12.90;99.90;;;;;;5097665;28;20562;-61
2023/09/14 05:05:33;;;;;;;10.10;6.30;;;13.00;99.90;;;;;;5096960;28;20833;-61
2023/09/14 05:08:00;;;;;;;7.20;6.37;;;13.00;99.90;;;;;;5097175;28;20467;-62
2023/09/14 05:10:29;;;;;;;8.43;7.40;;;13.10;99.90;;;;;;5087096;28;20529;-61
2023/09/14 05:12:56;;;;;;;8.50;6.53;;;13.10;99.90;;;;;;5086000;28;20476;-61
2023/09/14 05:15:23;;;;;;;9.40;6.37;;;13.00;99.90;;;;;;5098956;28;20475;-61
2023/09/14 05:17:50;;;;;;;7.40;6.00;;;13.00;99.90;;;;;;5117921;28;20957;-61
2023/09/14 05:20:18;;;;;;;9.47;6.37;;;13.00;99.90;;;;;;5099772;28;20846;-62
2023/09/14 05:22:45;;;;;;;10.03;7.57;;;12.90;83.50;;;;;;5097527;28;20462;-62
2023/09/14 05:25:12;;;;;;;9.70;7.83;;;12.90;12.40;;;;;;5097906;28;20558;-62
2023/09/14 05:27:42;;;;;;;11.67;7.03;;;12.80;1.00;;;;;;5081851;28;20655;-61
2023/09/14 05:30:11;;;;;;;9.33;6.70;;;12.80;1.00;;;;;;5093707;28;21725;-61
2023/09/14 05:32:39;;;;;;;11.37;7.70;;;12.90;49.10;;;;;;5099200;28;20435;-61
2023/09/14 05:35:07;;;;;;;9.57;8.20;;;12.90;99.90;;;;;;5094727;28;20473;-62
2023/09/14 05:37:35;;;;;;;17.87;8.07;;;12.90;99.90;;;;;;5080358;28;20627;-62
2023/09/14 05:40:09;;;;;;;11.13;8.37;;;12.80;99.90;;;;;;5103029;28;20474;-62
2023/09/14 05:42:38;;;;;;;10.23;8.13;;;12.80;99.90;;;;;;5109215;28;20474;-64
2023/09/14 05:45:08;;;;;;;11.40;8.83;;;12.90;99.90;;;;;;5117952;28;20459;-64
2023/09/14 05:47:36;;;;;;;13.37;9.50;;;13.00;99.90;;;;;;5115939;28;20491;-64
2023/09/14 05:50:04;;;;;;;13.97;9.40;;;13.10;99.90;;;;;;5116604;28;20551;-64
2023/09/14 05:52:32;;;;;;;13.17;8.67;;;13.20;99.90;;;;;;5117770;28;20438;-64
2023/09/14 05:54:59;;;;;;;12.43;9.43;;;13.30;99.90;;;;;;5117885;28;20435;-64
2023/09/14 05:57:26;;;;;;;13.33;10.20;;;13.40;99.90;;;;;;5117708;28;20513;-64
2023/09/14 05:59:53;;;;;;;12.47;9.83;;;13.40;99.30;;;;;;5117781;28;20452;-64
2023/09/14 06:02:22;;;;;;;16.93;10.70;;;13.50;75.90;;;;;;5117997;28;20455;-64
2023/09/14 06:04:49;;;;;;;11.37;8.83;;;13.60;55.20;;;;;;5117362;28;20551;-64
2023/09/14 06:07:17;;;;;;;13.53;11.40;;;13.70;42.70;;;;;;5117630;28;20452;-64
2023/09/14 06:09:44;;;;;;;15.50;11.60;;;13.70;1.00;;;;;;5119876;28;20458;-64
2023/09/14 06:12:11;;;;;;;13.63;11.50;;;13.70;1.00;;;;;;5121474;28;20465;-64
2023/09/14 06:14:39;;;;;;;14.30;12.00;;;13.90;1.00;;;;;;5121475;28;20459;-64
2023/09/14 06:17:06;;;;;;;15.03;11.80;;;14.00;1.00;;;;;;5120986;28;20491;-64
2023/09/14 06:19:34;;;;;;;13.67;11.53;;;14.10;1.00;;;;;;5121729;28;20550;-64
2023/09/14 06:22:02;;;;;;;15.00;12.37;;;14.20;99.90;;;;;;5121495;28;20477;-64
2023/09/14 06:24:29;;;;;;;15.83;13.27;;;14.40;99.90;;;;;;5121240;28;20455;-64
2023/09/14 06:26:56;;;;;;;14.00;12.10;;;14.40;1.00;;;;;;5121393;28;20798;-64
2023/09/14 06:29:23;;;;;;;15.63;11.93;;;14.20;99.90;;;;;;5121717;28;20457;-64
2023/09/14 06:31:51;;;;;;;14.80;11.53;;;14.30;95.80;;;;;;5121772;28;20512;-64
2023/09/14 06:34:18;;;;;;;17.97;12.17;;;14.40;13.40;;;;;;5121283;28;20459;-64
2023/09/14 06:36:47;;;;;;;14.87;12.47;;;14.50;99.90;;;;;;5121147;28;20839;-64
2023/09/14 06:39:15;;;;;;;15.00;11.47;;;14.70;1.00;;;;;;5121132;28;20487;-64
2023/09/14 06:41:42;;;;;;;13.30;11.90;;;14.80;99.90;;;;;;5121101;28;20549;-63
2023/09/14 06:44:09;;;;;;;13.50;11.07;;;14.90;10.10;;;;;;5121141;28;20530;-63
2023/09/14 06:46:37;;;;;;;14.50;12.00;;;15.00;99.90;;;;;;5120811;28;20451;-63
2023/09/14 06:49:04;;;;;;;13.73;11.83;;;15.00;1.00;;;;;;5121061;28;20761;-63
2023/09/14 06:51:31;;;;;;;13.47;11.57;;;15.00;1.00;;;;;;5121014;28;20565;-63
2023/09/14 06:54:00;;;;;;;14.20;11.73;;;15.00;1.00;;;;;;5120583;28;20643;-63
2023/09/14 06:56:27;;;;;;;12.50;10.60;;;14.90;1.00;;;;;;5120714;28;20487;-63
2023/09/14 06:58:55;;;;;;;11.30;10.00;;;15.10;1.00;;;;;;5120568;28;20866;-63
2023/09/14 07:01:23;;;;;;;11.23;10.03;;;15.20;1.00;;;;;;5120665;28;20469;-63
2023/09/14 07:03:51;;;;;;;11.90;9.80;;;15.10;99.90;;;;;;5120519;28;20554;-63
2023/09/14 07:06:19;;;;;;;16.60;11.73;;;14.90;99.90;;;;;;5119809;28;20800;-63
2023/09/14 07:08:48;;;;;;;16.00;11.20;;;15.20;99.90;;;;;;5120561;28;20503;-63
2023/09/14 07:11:17;;;;;;;13.20;10.87;;;15.40;99.90;;;;;;5120526;28;20459;-62
2023/09/14 07:13:44;;;;;;;15.40;11.30;;;15.40;1.00;;;;;;5120394;28;20456;-63
2023/09/14 07:16:11;;;;;;;13.23;10.47;;;15.60;99.90;;;;;;5120264;28;20526;-62
2023/09/14 07:18:38;;;;;;;12.60;10.83;;;15.70;99.90;;;;;;5120056;28;20455;-63
2023/09/14 07:21:06;;;;;;;13.03;11.30;;;15.80;99.90;;;;;;5120471;28;20468;-62
2023/09/14 07:23:33;;;;;;;13.27;10.17;;;15.90;12.00;;;;;;5120138;28;20462;-62
2023/09/14 07:26:02;;;;;;;16.30;10.50;;;16.10;55.40;;;;;;5120158;28;20465;-62
2023/09/14 07:28:31;;;;;;;12.53;10.03;;;16.20;51.80;;;;;;5120017;28;20714;-62
2023/09/14 07:31:04;;;;;;;11.90;10.70;;;16.20;1.00;;;;;;5119988;28;20482;-62
2023/09/14 07:33:31;;;;;;;13.53;11.73;;;16.30;28.20;;;;;;5120448;28;20459;-62
2023/09/14 07:35:59;;;;;;;13.73;10.73;;;16.40;1.00;;;;;;5119509;28;20491;-62
2023/09/14 07:38:26;;;;;;;13.70;10.30;;;16.50;68.40;;;;;;5119559;28;20430;-62
2023/09/14 07:40:54;;;;;;;12.97;10.27;;;16.60;1.00;;;;;;5119979;28;20542;-62
2023/09/14 07:43:21;;;;;;;12.03;10.83;;;16.70;1.00;;;;;;5120091;28;20810;-62
2023/09/14 07:45:49;;;;;;;11.67;10.47;;;16.90;1.00;;;;;;5119894;28;20771;-62
2023/09/14 07:48:17;;;;;;;13.10;10.70;;;17.10;99.90;;;;;;5119345;28;20428;-61
2023/09/14 07:50:44;;;;;;;14.03;11.03;;;17.20;27.70;;;;;;5119821;28;20463;-62
2023/09/14 07:53:11;;;;;;;13.10;10.47;;;17.30;46.30;;;;;;5120129;28;20501;-62
2023/09/14 07:55:38;;;;;;;12.00;10.00;;;17.50;1.00;;;;;;5119580;28;20915;-61
2023/09/14 07:58:07;;;;;;;12.60;10.73;;;17.60;1.00;;;;;;5119745;28;20754;-62
2023/09/14 08:00:35;;;;;;;11.53;10.37;;;17.60;99.90;;;;;;5119174;28;20460;-61
2023/09/14 08:03:04;;;;;;;13.63;10.00;;;17.70;99.90;;;;;;5119585;28;20711;-61
2023/09/14 08:05:31;;;;;;;16.47;11.13;;;17.90;1.00;;;;;;5118265;28;20467;-61
2023/09/14 08:07:58;;;;;;;15.17;8.87;;;17.90;99.90;;;;;;5118596;28;20451;-61
2023/09/14 08:10:25;;;;;;;10.73;8.77;;;18.00;99.90;;;;;;5119232;28;20915;-61
2023/09/14 08:12:53;;;;;;;10.53;9.33;;;18.00;99.90;;;;;;5119454;28;20438;-61
2023/09/14 08:15:21;;;;;;;12.30;9.17;;;18.00;99.90;;;;;;5119637;28;20513;-61
2023/09/14 08:17:48;;;;;;;8.60;7.70;;;18.10;99.90;;;;;;5119319;28;20503;-61
2023/09/14 08:20:17;;;;;;;10.83;7.43;;;18.50;99.90;;;;;;5118666;28;20460;-62
2023/09/14 08:22:45;;;;;;;10.83;8.07;;;18.90;99.90;;;;;;5119342;28;20876;-62
2023/09/14 08:25:15;;;;;;;9.27;7.70;;;19.30;1.00;;;;;;5119262;28;20464;-61
2023/09/14 08:27:43;;;;;;;8.40;7.50;;;19.80;1.00;;;;;;5119043;28;20430;-61
2023/09/14 08:30:11;;;;;;;7.70;6.87;;;20.10;99.90;;;;;;5118727;28;20484;-61
2023/09/14 08:32:39;;;;;;;11.73;7.60;;;20.40;99.90;;;;;;5118302;28;20487;-61
2023/09/14 08:35:25;;;;;;;8.57;6.50;;;19.80;1.00;;;;;;5118339;28;20510;-61
2023/09/14 08:37:53;;;;;;;7.73;5.97;;;20.10;1.00;;;;;;5118977;28;20794;-61
2023/09/14 08:40:21;;;;;;;7.43;5.43;;;20.10;1.00;;;;;;5111717;28;20484;-61
2023/09/14 08:42:51;;;;;;;8.27;5.73;;;20.20;99.90;;;;;;5118421;28;20547;-61
2023/09/14 08:45:25;;;;;;;7.30;4.60;;;20.50;1.00;;;;;;5118520;28;20488;-61
2023/09/14 08:47:55;;;;;;;6.47;4.67;;;21.00;1.00;;;;;;5118902;28;20458;-61
2023/09/14 08:50:26;;;;;;;5.33;4.83;;;21.20;99.90;;;;;;5116331;28;20463;-61
2023/09/14 08:52:54;;;;;;;7.00;4.50;;;21.30;99.90;;;;;;5116937;28;20951;-61
2023/09/14 08:55:22;;;;;;;5.07;3.63;;;21.20;60.60;;;;;;5117400;28;20884;-61
2023/09/14 08:57:50;;;;;;;5.57;4.70;;;21.00;20.70;;;;;;5118284;28;20513;-61
2023/09/14 09:00:18;;;;;;;8.13;4.60;;;21.10;28.10;;;;;;5117908;28;20753;-61
2023/09/14 09:02:46;;;;;;;6.93;5.17;;;21.00;8.70;;;;;;5118271;28;20455;-61
2023/09/14 09:05:14;;;;;;;6.83;4.83;;;20.90;1.00;;;;;;5118368;28;20460;-61
2023/09/14 09:07:45;;;;;;;6.97;5.43;;;20.70;1.00;;;;;;5118520;28;20463;-61
2023/09/14 09:10:17;;;;;;;5.20;4.70;;;20.50;1.00;;;;;;5117831;28;20487;-61
2023/09/14 09:12:46;;;;;;;5.47;4.70;;;20.30;1.00;;;;;;5118536;28;20455;-61
2023/09/14 09:15:14;;;;;;;5.10;4.03;;;20.20;1.00;;;;;;5118237;28;20788;-61
2023/09/14 09:17:44;;;;;;;6.90;4.67;;;20.20;23.40;;;;;;5118086;28;20487;-61
2023/09/14 09:20:19;;;;;;;5.83;4.03;;;20.10;1.00;;;;;;5117807;28;20696;-62
2023/09/14 09:22:48;;;;;;;4.57;3.90;;;20.10;1.00;;;;;;5117512;28;20459;-62
2023/09/14 09:25:15;;;;;;;6.57;5.00;;;20.00;1.00;;;;;;5117928;28;20807;-62
2023/09/14 09:27:43;;;;;;;5.90;4.00;;;20.10;1.00;;;;;;5118057;28;20458;-62
2023/09/14 09:30:11;;;;;;;5.70;3.90;;;20.10;1.00;;;;;;5117853;28;20456;-62
2023/09/14 09:32:39;;;;;;;5.60;3.60;;;20.20;1.00;;;;;;5117786;28;20825;-62
2023/09/14 09:35:18;;;;;;;4.43;3.67;;;20.20;1.00;;;;;;5117615;28;20877;-62
2023/09/14 09:37:50;;;;;;;6.50;4.27;;;20.20;1.00;;;;;;5117679;28;20491;-62
2023/09/14 09:40:18;;;;;;;6.10;3.67;;;20.10;1.00;;;;;;5117524;28;20533;-62
2023/09/14 09:42:46;;;;;;;6.03;3.77;;;20.00;1.00;;;;;;5116137;28;20456;-61
2023/09/14 09:45:14;;;;;;;4.37;3.97;;;20.00;1.00;;;;;;5115473;28;20455;-61
2023/09/14 09:47:43;;;;;;;5.70;3.20;;;20.00;1.00;;;;;;5116064;28;20451;-61
2023/09/14 09:50:12;;;;;;;6.00;4.60;;;19.90;1.00;;;;;;5116307;28;20491;-61
2023/09/14 09:52:40;;;;;;;6.60;3.50;;;19.70;1.00;;;;;;5116719;28;20893;-62
2023/09/14 09:55:17;;;;;;;5.00;3.53;;;19.60;1.00;;;;;;5116870;28;20463;-61
2023/09/14 09:57:51;;;;;;;5.17;3.93;;;19.50;1.00;;;;;;5117419;28;20527;-62
2023/09/14 10:00:19;;;;;;;4.10;3.13;;;19.50;1.00;;;;;;5117640;28;20466;-61
2023/09/14 10:02:47;;;;;;;4.10;3.10;;;19.50;1.00;;;;;;5117533;28;20455;-62
2023/09/14 10:05:15;;;;;;;4.57;3.00;;;19.50;1.00;;;;;;5117347;28;20908;-62
2023/09/14 10:07:42;;;;;;;4.63;3.13;;;19.20;1.00;;;;;;5116288;28;20458;-61
2023/09/14 10:10:12;;;;;;;4.77;3.47;;;19.30;1.00;;;;;;5098391;28;20917;-61
2023/09/14 10:12:40;;;;;;;4.07;3.13;;;19.50;1.00;;;;;;5095355;28;20503;-62
2023/09/14 10:15:09;;;;;;;4.30;3.53;;;19.50;1.00;;;;;;5095692;28;20750;-61
2023/09/14 10:17:38;;;;;;;4.27;3.43;;;19.60;1.00;;;;;;5095215;28;20582;-61
2023/09/14 10:20:08;;;;;;;4.20;3.80;;;19.70;1.00;;;;;;5095247;28;20888;-61
2023/09/14 10:22:37;;;;;;;3.90;3.50;;;19.70;1.00;;;;;;5077904;28;20555;-61
2023/09/14 10:25:07;;;;;;;8.43;4.50;;;19.70;1.00;;;;;;5097271;28;20541;-62
2023/09/14 10:27:38;;;;;;;5.60;4.17;;;19.70;1.00;;;;;;5097160;28;20522;-62
2023/09/14 10:30:06;;;;;;;5.83;4.30;;;19.30;1.00;;;;;;5096791;28;20460;-61
2023/09/14 10:32:37;;;;;;;4.60;4.10;;;19.40;1.00;;;;;;5096459;28;20492;-61
2023/09/14 10:35:06;;;;;;;5.77;4.60;;;19.60;45.00;;;;;;5097261;28;20438;-61
2023/09/14 10:37:35;;;;;;;7.03;4.63;;;19.50;22.10;;;;;;5097090;28;20919;-61
2023/09/14 10:40:08;;;;;;;9.87;4.67;;;19.60;1.50;;;;;;5104718;28;20475;-62
2023/09/14 10:42:36;;;;;;;8.60;5.20;;;19.40;1.00;;;;;;5117407;28;20466;-62
2023/09/14 10:45:05;;;;;;;6.50;4.53;;;18.70;99.90;;;;;;5117384;28;20743;-62
2023/09/14 10:47:37;;;;;;;10.57;5.13;;;19.00;99.90;;;;;;5117363;28;20533;-62
2023/09/14 10:50:06;;;;;;;5.50;4.50;;;19.20;99.90;;;;;;5116897;28;20553;-62
2023/09/14 10:52:34;;;;;;;5.70;4.10;;;19.30;79.30;;;;;;5117102;28;20490;-62
2023/09/14 10:55:04;;;;;;;5.30;4.30;;;19.40;1.00;;;;;;5117725;28;20484;-62
2023/09/14 10:57:31;;;;;;;5.80;4.83;;;19.50;1.00;;;;;;5120782;28;20513;-62
2023/09/14 11:00:01;;;;;;;6.23;4.43;;;19.20;1.00;;;;;;5120492;28;20466;-62
2023/09/14 11:02:59;;;;;;;7.50;4.60;;;19.40;1.00;;;;;;5120621;28;20797;-61
2023/09/14 11:05:39;;;;;;;6.10;5.00;;;19.60;1.00;;;;;;5119946;28;20466;-62
2023/09/14 11:08:06;;;;;;;7.57;4.40;;;19.70;1.00;;;;;;5120136;28;20524;-62
2023/09/14 11:10:37;;;;;;;9.60;4.90;;;20.00;1.00;;;;;;5120392;28;20538;-62
2023/09/14 11:13:28;;;;;;;5.17;4.43;;;20.30;1.00;;;;;;5120764;28;20455;-61
2023/09/14 11:16:06;;;;;;;8.50;4.23;;;20.30;1.00;;;;;;5120559;28;20455;-61
2023/09/14 11:18:50;;;;;;;7.60;4.67;;;20.30;1.00;;;;;;5119872;28;20545;-62
2023/09/14 11:21:42;;;;;;;5.97;4.20;;;20.10;1.00;;;;;;5120579;28;20506;-62
2023/09/14 11:24:10;;;;;;;4.93;4.10;;;20.00;1.00;;;;;;5119719;28;20555;-62
2023/09/14 11:26:44;;;;;;;6.87;4.27;;;20.20;1.00;;;;;;5117597;28;20468;-62
2023/09/14 11:29:12;;;;;;;6.00;4.43;;;20.20;1.00;;;;;;5119141;28;20485;-62
2023/09/14 11:31:42;;;;;;;5.90;4.80;;;20.30;1.00;;;;;;5119045;28;20774;-62
2023/09/14 11:34:14;;;;;;;6.50;3.93;;;20.40;1.00;;;;;;5119524;28;20490;-60
2023/09/14 11:36:42;;;;;;;5.73;4.07;;;20.20;1.00;;;;;;5117335;28;20474;-62
2023/09/14 11:39:11;;;;;;;8.30;4.40;;;20.20;1.00;;;;;;5118070;28;20491;-61
2023/09/14 11:41:40;;;;;;;4.63;4.23;;;20.10;1.00;;;;;;5119745;28;20460;-61
2023/09/14 11:44:08;;;;;;;7.00;4.20;;;19.90;1.00;;;;;;5115188;28;20560;-61
2023/09/14 11:46:37;;;;;;;8.20;4.93;;;19.20;99.90;;;;;;5118075;28;20468;-62
2023/09/14 11:49:06;;;;;;;5.30;4.80;;;19.10;1.00;;;;;;5116744;28;20473;-61
2023/09/14 11:51:34;;;;;;;5.20;4.03;;;19.00;1.00;;;;;;5117026;28;20471;-60
2023/09/14 11:54:02;;;;;;;4.63;4.13;;;19.10;1.00;;;;;;5117664;28;20490;-59
2023/09/14 11:56:33;;;;;;;5.10;4.40;;;19.10;1.00;;;;;;5116227;28;20471;-59
2023/09/14 11:59:02;;;;;;;8.10;3.90;;;18.80;1.00;;;;;;5117230;28;20487;-59
2023/09/14 12:01:32;;;;;;;7.53;3.90;;;18.90;1.00;;;;;;5118683;28;20463;-59
2023/09/14 12:04:00;;;;;;;5.80;4.53;;;19.20;1.00;;;;;;5117625;28;20459;-59
2023/09/14 12:06:29;;;;;;;4.73;4.23;;;19.50;1.00;;;;;;5117901;28;20466;-59
2023/09/14 12:08:58;;;;;;;5.93;3.53;;;19.50;1.00;;;;;;5119584;28;20451;-58
2023/09/14 12:11:39;;;;;;;6.47;4.37;;;19.60;1.00;;;;;;5119208;28;20764;-59
2023/09/14 12:14:07;;;;;;;7.23;4.80;;;19.90;1.00;;;;;;5119358;28;20720;-59
2023/09/14 12:16:37;;;;;;;5.47;4.17;;;20.50;1.00;;;;;;5119191;28;20458;-59
2023/09/14 12:19:05;;;;;;;5.43;4.20;;;21.00;99.90;;;;;;5118999;28;20526;-58
2023/09/14 12:21:33;;;;;;;5.10;3.90;;;21.20;99.90;;;;;;5119188;28;20455;-58
2023/09/14 12:24:01;;;;;;;4.50;4.10;;;21.90;99.90;;;;;;5117455;28;20430;-59
2023/09/14 12:26:29;;;;;;;6.20;3.90;;;22.20;99.90;;;;;;5117364;28;20452;-59
2023/09/14 12:28:59;;;;;;;6.27;4.50;;;22.60;99.90;;;;;;5117465;28;20483;-59
2023/09/14 12:31:28;;;;;;;5.70;4.47;;;22.60;99.90;;;;;;5117020;28;20455;-59
2023/09/14 12:33:56;;;;;;;4.87;3.80;;;22.20;99.90;;;;;;5117957;28;20484;-60
2023/09/14 12:36:23;;;;;;;4.47;3.57;;;22.00;99.90;;;;;;5117918;28;20530;-59
2023/09/14 12:38:53;;;;;;;4.83;3.93;;;22.10;99.90;;;;;;5117323;28;20491;-60
2023/09/14 12:41:22;;;;;;;4.73;3.20;;;22.10;99.90;;;;;;5115873;28;20767;-59
2023/09/14 12:43:49;;;;;;;4.77;3.60;;;22.20;99.90;;;;;;5116929;28;20487;-59
2023/09/14 12:46:17;;;;;;;4.30;3.77;;;22.20;99.90;;;;;;5117192;28;20466;-59
2023/09/14 12:48:44;;;;;;;5.17;3.43;;;22.20;99.90;;;;;;5117134;28;20940;-59
2023/09/14 12:51:16;;;;;;;4.00;3.70;;;22.40;99.90;;;;;;5117034;28;20817;-59
2023/09/14 12:53:44;;;;;;;5.50;4.33;;;22.50;99.90;;;;;;5117927;28;20558;-59
2023/09/14 12:56:14;;;;;;;4.70;3.77;;;22.60;99.90;;;;;;5116620;28;20490;-59